sensor_id;sensor_type;location;lat;lon;timestamp;P1;durP1;ratioP1;P2;durP2;ratioP2
17965;SDS011;9108;53.204;10.424;2022-12-07T00:01:48;41.10;;;18.60;;
17965;SDS011;9108;53.204;10.424;2022-12-07T00:04:16;41.88;;;18.00;;
17965;SDS011;9108;53.204;10.424;2022-12-07T00:06:46;39.17;;;18.65;;
17965;SDS011;9108;53.204;10.424;2022-12-07T00:09:23;38.45;;;18.00;;
17965;SDS011;9108;53.204;10.424;2022-12-07T00:11:50;36.60;;;17.70;;
17965;SDS011;9108;53.204;10.424;2022-12-07T00:14:18;42.20;;;18.45;;
17965;SDS011;9108;53.204;10.424;2022-12-07T00:16:46;39.15;;;18.52;;
17965;SDS011;9108;53.204;10.424;2022-12-07T00:19:15;38.78;;;17.83;;
17965;SDS011;9108;53.204;10.424;2022-12-07T00:21:42;39.00;;;18.17;;
17965;SDS011;9108;53.204;10.424;2022-12-07T00:24:11;37.92;;;17.17;;
17965;SDS011;9108;53.204;10.424;2022-12-07T00:26:39;36.57;;;17.10;;
17965;SDS011;9108;53.204;10.424;2022-12-07T00:29:08;36.80;;;17.27;;
17965;SDS011;9108;53.204;10.424;2022-12-07T00:31:36;35.78;;;16.70;;
17965;SDS011;9108;53.204;10.424;2022-12-07T00:34:04;38.13;;;16.92;;
17965;SDS011;9108;53.204;10.424;2022-12-07T00:36:32;37.33;;;16.88;;
17965;SDS011;9108;53.204;10.424;2022-12-07T00:38:59;39.95;;;17.58;;
17965;SDS011;9108;53.204;10.424;2022-12-07T00:41:28;39.28;;;17.55;;
17965;SDS011;9108;53.204;10.424;2022-12-07T00:43:56;39.13;;;17.65;;
17965;SDS011;9108;53.204;10.424;2022-12-07T00:46:23;40.40;;;17.77;;
17965;SDS011;9108;53.204;10.424;2022-12-07T00:48:51;43.30;;;18.40;;
17965;SDS011;9108;53.204;10.424;2022-12-07T00:51:20;41.00;;;18.13;;
17965;SDS011;9108;53.204;10.424;2022-12-07T00:53:48;42.28;;;18.30;;
17965;SDS011;9108;53.204;10.424;2022-12-07T00:56:16;41.58;;;18.17;;
17965;SDS011;9108;53.204;10.424;2022-12-07T00:58:44;41.42;;;18.42;;
17965;SDS011;9108;53.204;10.424;2022-12-07T01:01:15;41.40;;;18.17;;
17965;SDS011;9108;53.204;10.424;2022-12-07T01:03:43;44.60;;;18.55;;
17965;SDS011;9108;53.204;10.424;2022-12-07T01:06:13;41.13;;;18.13;;
17965;SDS011;9108;53.204;10.424;2022-12-07T01:08:40;39.53;;;17.55;;
17965;SDS011;9108;53.204;10.424;2022-12-07T01:11:09;42.40;;;17.75;;
17965;SDS011;9108;53.204;10.424;2022-12-07T01:13:36;39.83;;;16.60;;
17965;SDS011;9108;53.204;10.424;2022-12-07T01:16:05;35.58;;;16.23;;
17965;SDS011;9108;53.204;10.424;2022-12-07T01:18:33;36.75;;;16.67;;
17965;SDS011;9108;53.204;10.424;2022-12-07T01:21:01;38.78;;;16.58;;
17965;SDS011;9108;53.204;10.424;2022-12-07T01:23:29;36.42;;;15.95;;
17965;SDS011;9108;53.204;10.424;2022-12-07T01:25:56;40.60;;;16.65;;
17965;SDS011;9108;53.204;10.424;2022-12-07T01:28:24;35.92;;;16.13;;
17965;SDS011;9108;53.204;10.424;2022-12-07T01:30:56;35.63;;;16.42;;
17965;SDS011;9108;53.204;10.424;2022-12-07T01:33:25;37.90;;;15.75;;
17965;SDS011;9108;53.204;10.424;2022-12-07T01:35:53;35.58;;;16.08;;
17965;SDS011;9108;53.204;10.424;2022-12-07T01:38:20;37.30;;;16.00;;
17965;SDS011;9108;53.204;10.424;2022-12-07T01:40:53;38.25;;;15.70;;
17965;SDS011;9108;53.204;10.424;2022-12-07T01:43:20;39.83;;;16.42;;
17965;SDS011;9108;53.204;10.424;2022-12-07T01:45:47;33.78;;;15.63;;
17965;SDS011;9108;53.204;10.424;2022-12-07T01:48:15;38.17;;;15.68;;
17965;SDS011;9108;53.204;10.424;2022-12-07T01:50:45;35.22;;;16.48;;
17965;SDS011;9108;53.204;10.424;2022-12-07T01:53:14;37.40;;;15.55;;
17965;SDS011;9108;53.204;10.424;2022-12-07T01:55:42;34.53;;;15.50;;
17965;SDS011;9108;53.204;10.424;2022-12-07T01:58:10;36.03;;;15.38;;
17965;SDS011;9108;53.204;10.424;2022-12-07T02:00:38;37.13;;;16.58;;
17965;SDS011;9108;53.204;10.424;2022-12-07T02:03:06;37.28;;;15.52;;
17965;SDS011;9108;53.204;10.424;2022-12-07T02:05:35;37.95;;;15.98;;
17965;SDS011;9108;53.204;10.424;2022-12-07T02:08:05;37.40;;;15.60;;
17965;SDS011;9108;53.204;10.424;2022-12-07T02:10:32;34.53;;;14.90;;
17965;SDS011;9108;53.204;10.424;2022-12-07T02:13:01;33.53;;;15.10;;
17965;SDS011;9108;53.204;10.424;2022-12-07T02:15:29;35.85;;;14.57;;
17965;SDS011;9108;53.204;10.424;2022-12-07T02:18:01;37.22;;;14.25;;
17965;SDS011;9108;53.204;10.424;2022-12-07T02:20:32;32.10;;;14.38;;
17965;SDS011;9108;53.204;10.424;2022-12-07T02:23:04;32.60;;;14.10;;
17965;SDS011;9108;53.204;10.424;2022-12-07T02:25:43;32.77;;;14.00;;
17965;SDS011;9108;53.204;10.424;2022-12-07T02:28:16;31.10;;;13.75;;
17965;SDS011;9108;53.204;10.424;2022-12-07T02:30:47;31.85;;;13.73;;
17965;SDS011;9108;53.204;10.424;2022-12-07T02:33:16;31.73;;;13.95;;
17965;SDS011;9108;53.204;10.424;2022-12-07T02:35:45;29.45;;;12.63;;
17965;SDS011;9108;53.204;10.424;2022-12-07T02:38:14;31.55;;;13.00;;
17965;SDS011;9108;53.204;10.424;2022-12-07T02:40:43;30.35;;;13.30;;
17965;SDS011;9108;53.204;10.424;2022-12-07T02:43:16;28.48;;;13.43;;
17965;SDS011;9108;53.204;10.424;2022-12-07T02:45:44;33.25;;;13.73;;
17965;SDS011;9108;53.204;10.424;2022-12-07T02:48:14;32.03;;;13.43;;
17965;SDS011;9108;53.204;10.424;2022-12-07T02:50:44;29.40;;;12.93;;
17965;SDS011;9108;53.204;10.424;2022-12-07T02:55:53;31.92;;;12.73;;
17965;SDS011;9108;53.204;10.424;2022-12-07T02:58:23;28.02;;;12.27;;
17965;SDS011;9108;53.204;10.424;2022-12-07T03:01:05;26.88;;;12.40;;
17965;SDS011;9108;53.204;10.424;2022-12-07T03:03:36;29.25;;;11.38;;
17965;SDS011;9108;53.204;10.424;2022-12-07T03:06:06;25.60;;;11.45;;
17965;SDS011;9108;53.204;10.424;2022-12-07T03:08:37;23.98;;;10.43;;
17965;SDS011;9108;53.204;10.424;2022-12-07T03:11:06;24.80;;;10.52;;
17965;SDS011;9108;53.204;10.424;2022-12-07T03:13:37;20.48;;;8.88;;
17965;SDS011;9108;53.204;10.424;2022-12-07T03:16:08;21.97;;;8.77;;
17965;SDS011;9108;53.204;10.424;2022-12-07T03:18:38;21.50;;;8.63;;
17965;SDS011;9108;53.204;10.424;2022-12-07T03:21:08;18.77;;;8.25;;
17965;SDS011;9108;53.204;10.424;2022-12-07T03:23:37;18.30;;;7.75;;
17965;SDS011;9108;53.204;10.424;2022-12-07T03:26:05;18.77;;;8.05;;
17965;SDS011;9108;53.204;10.424;2022-12-07T03:28:35;16.88;;;7.43;;
17965;SDS011;9108;53.204;10.424;2022-12-07T03:31:04;17.88;;;7.63;;
17965;SDS011;9108;53.204;10.424;2022-12-07T03:33:36;19.95;;;7.80;;
17965;SDS011;9108;53.204;10.424;2022-12-07T03:36:06;19.48;;;7.57;;
17965;SDS011;9108;53.204;10.424;2022-12-07T03:38:37;21.60;;;7.25;;
17965;SDS011;9108;53.204;10.424;2022-12-07T03:41:05;18.30;;;7.17;;
17965;SDS011;9108;53.204;10.424;2022-12-07T03:43:33;19.80;;;7.72;;
17965;SDS011;9108;53.204;10.424;2022-12-07T03:46:03;19.27;;;7.60;;
17965;SDS011;9108;53.204;10.424;2022-12-07T03:48:35;18.10;;;6.93;;
17965;SDS011;9108;53.204;10.424;2022-12-07T03:51:08;18.30;;;6.82;;
17965;SDS011;9108;53.204;10.424;2022-12-07T03:53:36;19.92;;;7.03;;
17965;SDS011;9108;53.204;10.424;2022-12-07T03:56:04;19.15;;;6.80;;
17965;SDS011;9108;53.204;10.424;2022-12-07T03:58:31;17.52;;;6.18;;
17965;SDS011;9108;53.204;10.424;2022-12-07T04:00:59;15.70;;;6.25;;
17965;SDS011;9108;53.204;10.424;2022-12-07T04:03:26;19.35;;;6.38;;
17965;SDS011;9108;53.204;10.424;2022-12-07T04:05:53;14.40;;;5.80;;
17965;SDS011;9108;53.204;10.424;2022-12-07T04:08:22;13.90;;;5.43;;
17965;SDS011;9108;53.204;10.424;2022-12-07T04:10:49;15.48;;;5.53;;
17965;SDS011;9108;53.204;10.424;2022-12-07T04:13:16;14.30;;;5.30;;
17965;SDS011;9108;53.204;10.424;2022-12-07T04:15:43;15.27;;;5.43;;
17965;SDS011;9108;53.204;10.424;2022-12-07T04:18:10;16.45;;;5.57;;
17965;SDS011;9108;53.204;10.424;2022-12-07T04:20:37;17.85;;;6.20;;
17965;SDS011;9108;53.204;10.424;2022-12-07T04:23:04;12.95;;;5.45;;
17965;SDS011;9108;53.204;10.424;2022-12-07T04:25:33;16.63;;;5.70;;
17965;SDS011;9108;53.204;10.424;2022-12-07T04:28:00;15.68;;;5.78;;
17965;SDS011;9108;53.204;10.424;2022-12-07T04:30:27;16.05;;;5.57;;
17965;SDS011;9108;53.204;10.424;2022-12-07T04:32:54;16.73;;;6.05;;
17965;SDS011;9108;53.204;10.424;2022-12-07T04:35:21;17.48;;;6.10;;
17965;SDS011;9108;53.204;10.424;2022-12-07T04:37:49;20.38;;;6.00;;
17965;SDS011;9108;53.204;10.424;2022-12-07T04:40:16;14.82;;;5.85;;
17965;SDS011;9108;53.204;10.424;2022-12-07T04:42:44;17.58;;;5.93;;
17965;SDS011;9108;53.204;10.424;2022-12-07T04:45:11;17.33;;;5.70;;
17965;SDS011;9108;53.204;10.424;2022-12-07T04:47:39;13.93;;;5.40;;
17965;SDS011;9108;53.204;10.424;2022-12-07T04:50:06;14.77;;;5.25;;
17965;SDS011;9108;53.204;10.424;2022-12-07T04:52:33;18.17;;;5.60;;
17965;SDS011;9108;53.204;10.424;2022-12-07T04:55:01;15.88;;;5.25;;
17965;SDS011;9108;53.204;10.424;2022-12-07T04:57:28;16.58;;;5.13;;
17965;SDS011;9108;53.204;10.424;2022-12-07T04:59:56;12.52;;;5.10;;
17965;SDS011;9108;53.204;10.424;2022-12-07T05:02:23;13.98;;;5.00;;
17965;SDS011;9108;53.204;10.424;2022-12-07T05:04:51;15.50;;;4.97;;
17965;SDS011;9108;53.204;10.424;2022-12-07T05:07:18;15.80;;;4.80;;
17965;SDS011;9108;53.204;10.424;2022-12-07T05:09:45;15.32;;;5.07;;
17965;SDS011;9108;53.204;10.424;2022-12-07T05:12:12;11.98;;;4.70;;
17965;SDS011;9108;53.204;10.424;2022-12-07T05:14:39;13.75;;;4.60;;
17965;SDS011;9108;53.204;10.424;2022-12-07T05:17:08;12.63;;;4.90;;
17965;SDS011;9108;53.204;10.424;2022-12-07T05:19:36;11.98;;;4.45;;
17965;SDS011;9108;53.204;10.424;2022-12-07T05:22:03;13.38;;;4.75;;
17965;SDS011;9108;53.204;10.424;2022-12-07T05:24:30;14.20;;;4.72;;
17965;SDS011;9108;53.204;10.424;2022-12-07T05:26:57;13.85;;;4.72;;
17965;SDS011;9108;53.204;10.424;2022-12-07T05:29:25;13.65;;;4.80;;
17965;SDS011;9108;53.204;10.424;2022-12-07T05:31:52;13.30;;;4.80;;
17965;SDS011;9108;53.204;10.424;2022-12-07T05:34:20;13.48;;;4.45;;
17965;SDS011;9108;53.204;10.424;2022-12-07T05:36:47;12.45;;;4.70;;
17965;SDS011;9108;53.204;10.424;2022-12-07T05:39:15;15.75;;;4.63;;
17965;SDS011;9108;53.204;10.424;2022-12-07T05:41:42;14.85;;;4.60;;
17965;SDS011;9108;53.204;10.424;2022-12-07T05:44:27;10.85;;;4.00;;
17965;SDS011;9108;53.204;10.424;2022-12-07T05:46:54;12.73;;;4.37;;
17965;SDS011;9108;53.204;10.424;2022-12-07T05:49:23;11.50;;;4.00;;
17965;SDS011;9108;53.204;10.424;2022-12-07T05:51:50;12.52;;;4.60;;
17965;SDS011;9108;53.204;10.424;2022-12-07T05:54:17;13.02;;;4.18;;
17965;SDS011;9108;53.204;10.424;2022-12-07T05:56:44;12.23;;;4.10;;
17965;SDS011;9108;53.204;10.424;2022-12-07T05:59:11;10.40;;;3.97;;
17965;SDS011;9108;53.204;10.424;2022-12-07T06:01:52;11.27;;;4.05;;
17965;SDS011;9108;53.204;10.424;2022-12-07T06:04:20;13.23;;;4.75;;
17965;SDS011;9108;53.204;10.424;2022-12-07T06:06:48;13.48;;;5.00;;
17965;SDS011;9108;53.204;10.424;2022-12-07T06:09:16;16.38;;;5.00;;
17965;SDS011;9108;53.204;10.424;2022-12-07T06:11:43;12.88;;;4.97;;
17965;SDS011;9108;53.204;10.424;2022-12-07T06:14:28;14.88;;;4.65;;
17965;SDS011;9108;53.204;10.424;2022-12-07T06:16:55;11.60;;;4.90;;
17965;SDS011;9108;53.204;10.424;2022-12-07T06:19:22;15.07;;;4.80;;
17965;SDS011;9108;53.204;10.424;2022-12-07T06:21:52;10.75;;;4.30;;
17965;SDS011;9108;53.204;10.424;2022-12-07T06:24:19;12.15;;;4.32;;
17965;SDS011;9108;53.204;10.424;2022-12-07T06:26:46;13.50;;;4.43;;
17965;SDS011;9108;53.204;10.424;2022-12-07T06:29:14;11.52;;;4.57;;
17965;SDS011;9108;53.204;10.424;2022-12-07T06:31:41;16.20;;;4.60;;
17965;SDS011;9108;53.204;10.424;2022-12-07T06:34:09;15.38;;;4.43;;
17965;SDS011;9108;53.204;10.424;2022-12-07T06:36:36;11.35;;;4.22;;
17965;SDS011;9108;53.204;10.424;2022-12-07T06:39:05;13.55;;;4.80;;
17965;SDS011;9108;53.204;10.424;2022-12-07T06:41:34;13.93;;;5.05;;
17965;SDS011;9108;53.204;10.424;2022-12-07T06:44:01;14.60;;;4.85;;
17965;SDS011;9108;53.204;10.424;2022-12-07T06:46:28;14.95;;;5.00;;
17965;SDS011;9108;53.204;10.424;2022-12-07T06:48:56;12.93;;;4.53;;
17965;SDS011;9108;53.204;10.424;2022-12-07T06:51:23;17.02;;;5.40;;
17965;SDS011;9108;53.204;10.424;2022-12-07T06:53:50;18.98;;;5.13;;
17965;SDS011;9108;53.204;10.424;2022-12-07T06:56:19;13.77;;;5.20;;
17965;SDS011;9108;53.204;10.424;2022-12-07T06:58:47;16.70;;;5.40;;
17965;SDS011;9108;53.204;10.424;2022-12-07T07:01:15;13.23;;;5.13;;
17965;SDS011;9108;53.204;10.424;2022-12-07T07:03:42;14.52;;;5.07;;
17965;SDS011;9108;53.204;10.424;2022-12-07T07:06:10;18.38;;;5.05;;
17965;SDS011;9108;53.204;10.424;2022-12-07T07:08:37;16.48;;;5.07;;
17965;SDS011;9108;53.204;10.424;2022-12-07T07:11:05;15.15;;;4.85;;
17965;SDS011;9108;53.204;10.424;2022-12-07T07:13:33;13.98;;;4.30;;
17965;SDS011;9108;53.204;10.424;2022-12-07T07:16:01;13.07;;;4.10;;
17965;SDS011;9108;53.204;10.424;2022-12-07T07:18:28;14.20;;;4.18;;
17965;SDS011;9108;53.204;10.424;2022-12-07T07:20:55;13.45;;;3.78;;
17965;SDS011;9108;53.204;10.424;2022-12-07T07:23:23;10.18;;;3.45;;
17965;SDS011;9108;53.204;10.424;2022-12-07T07:25:50;11.50;;;4.00;;
17965;SDS011;9108;53.204;10.424;2022-12-07T07:28:17;11.25;;;3.70;;
17965;SDS011;9108;53.204;10.424;2022-12-07T07:30:46;12.48;;;3.90;;
17965;SDS011;9108;53.204;10.424;2022-12-07T07:33:13;15.43;;;4.13;;
17965;SDS011;9108;53.204;10.424;2022-12-07T07:35:40;12.05;;;3.97;;
17965;SDS011;9108;53.204;10.424;2022-12-07T07:38:07;12.63;;;4.18;;
17965;SDS011;9108;53.204;10.424;2022-12-07T07:40:34;12.63;;;3.90;;
17965;SDS011;9108;53.204;10.424;2022-12-07T07:43:02;11.45;;;4.30;;
17965;SDS011;9108;53.204;10.424;2022-12-07T07:45:29;11.40;;;4.50;;
17965;SDS011;9108;53.204;10.424;2022-12-07T07:47:57;11.85;;;4.40;;
17965;SDS011;9108;53.204;10.424;2022-12-07T07:50:25;11.05;;;4.00;;
17965;SDS011;9108;53.204;10.424;2022-12-07T07:52:52;10.77;;;4.28;;
17965;SDS011;9108;53.204;10.424;2022-12-07T07:55:19;12.73;;;4.20;;
17965;SDS011;9108;53.204;10.424;2022-12-07T07:57:46;9.27;;;4.03;;
17965;SDS011;9108;53.204;10.424;2022-12-07T08:00:14;11.65;;;4.07;;
17965;SDS011;9108;53.204;10.424;2022-12-07T08:02:41;9.45;;;3.70;;
17965;SDS011;9108;53.204;10.424;2022-12-07T08:05:10;10.13;;;4.05;;
17965;SDS011;9108;53.204;10.424;2022-12-07T08:07:38;8.73;;;3.70;;
17965;SDS011;9108;53.204;10.424;2022-12-07T08:10:06;9.63;;;3.60;;
17965;SDS011;9108;53.204;10.424;2022-12-07T08:12:35;10.65;;;3.60;;
17965;SDS011;9108;53.204;10.424;2022-12-07T08:15:02;11.57;;;3.50;;
17965;SDS011;9108;53.204;10.424;2022-12-07T08:17:30;7.53;;;3.17;;
17965;SDS011;9108;53.204;10.424;2022-12-07T08:19:57;8.50;;;2.90;;
17965;SDS011;9108;53.204;10.424;2022-12-07T08:22:25;7.53;;;3.00;;
17965;SDS011;9108;53.204;10.424;2022-12-07T08:24:53;8.40;;;2.80;;
17965;SDS011;9108;53.204;10.424;2022-12-07T08:27:20;8.25;;;2.83;;
17965;SDS011;9108;53.204;10.424;2022-12-07T08:29:51;7.20;;;2.60;;
17965;SDS011;9108;53.204;10.424;2022-12-07T08:32:19;7.55;;;3.00;;
17965;SDS011;9108;53.204;10.424;2022-12-07T08:34:46;8.13;;;2.70;;
17965;SDS011;9108;53.204;10.424;2022-12-07T08:37:13;7.18;;;2.40;;
17965;SDS011;9108;53.204;10.424;2022-12-07T08:39:41;5.78;;;2.50;;
17965;SDS011;9108;53.204;10.424;2022-12-07T08:42:08;7.28;;;2.50;;
17965;SDS011;9108;53.204;10.424;2022-12-07T08:44:36;8.10;;;2.58;;
17965;SDS011;9108;53.204;10.424;2022-12-07T08:47:04;9.27;;;2.73;;
17965;SDS011;9108;53.204;10.424;2022-12-07T08:49:33;8.25;;;2.50;;
17965;SDS011;9108;53.204;10.424;2022-12-07T08:52:01;9.63;;;3.00;;
17965;SDS011;9108;53.204;10.424;2022-12-07T08:54:30;7.05;;;2.75;;
17965;SDS011;9108;53.204;10.424;2022-12-07T08:57:02;7.05;;;2.50;;
17965;SDS011;9108;53.204;10.424;2022-12-07T08:59:29;7.03;;;2.40;;
17965;SDS011;9108;53.204;10.424;2022-12-07T09:01:57;8.35;;;2.70;;
17965;SDS011;9108;53.204;10.424;2022-12-07T09:04:24;7.35;;;2.20;;
17965;SDS011;9108;53.204;10.424;2022-12-07T09:06:51;9.43;;;2.30;;
17965;SDS011;9108;53.204;10.424;2022-12-07T09:09:18;8.90;;;2.13;;
17965;SDS011;9108;53.204;10.424;2022-12-07T09:11:45;7.50;;;2.10;;
17965;SDS011;9108;53.204;10.424;2022-12-07T09:14:14;7.95;;;2.13;;
17965;SDS011;9108;53.204;10.424;2022-12-07T09:16:42;6.60;;;1.90;;
17965;SDS011;9108;53.204;10.424;2022-12-07T09:19:09;7.97;;;2.10;;
17965;SDS011;9108;53.204;10.424;2022-12-07T09:21:36;6.78;;;2.00;;
17965;SDS011;9108;53.204;10.424;2022-12-07T09:24:03;8.07;;;1.73;;
17965;SDS011;9108;53.204;10.424;2022-12-07T09:26:31;7.68;;;1.90;;
17965;SDS011;9108;53.204;10.424;2022-12-07T09:28:58;8.83;;;2.07;;
17965;SDS011;9108;53.204;10.424;2022-12-07T09:31:26;6.13;;;1.70;;
17965;SDS011;9108;53.204;10.424;2022-12-07T09:33:54;8.27;;;1.63;;
17965;SDS011;9108;53.204;10.424;2022-12-07T09:36:21;7.88;;;2.00;;
17965;SDS011;9108;53.204;10.424;2022-12-07T09:38:49;7.63;;;1.80;;
17965;SDS011;9108;53.204;10.424;2022-12-07T09:41:16;6.78;;;1.98;;
17965;SDS011;9108;53.204;10.424;2022-12-07T09:43:43;12.77;;;2.10;;
17965;SDS011;9108;53.204;10.424;2022-12-07T09:46:13;5.33;;;1.73;;
17965;SDS011;9108;53.204;10.424;2022-12-07T09:48:43;6.10;;;1.80;;
17965;SDS011;9108;53.204;10.424;2022-12-07T09:51:13;6.00;;;1.73;;
17965;SDS011;9108;53.204;10.424;2022-12-07T09:53:41;7.22;;;1.60;;
17965;SDS011;9108;53.204;10.424;2022-12-07T09:56:09;8.80;;;1.88;;
17965;SDS011;9108;53.204;10.424;2022-12-07T09:58:38;6.72;;;1.77;;
17965;SDS011;9108;53.204;10.424;2022-12-07T10:01:09;7.05;;;1.83;;
17965;SDS011;9108;53.204;10.424;2022-12-07T10:03:37;7.13;;;1.70;;
17965;SDS011;9108;53.204;10.424;2022-12-07T10:06:06;5.65;;;1.85;;
17965;SDS011;9108;53.204;10.424;2022-12-07T10:08:34;6.75;;;1.90;;
17965;SDS011;9108;53.204;10.424;2022-12-07T10:11:01;10.38;;;2.00;;
17965;SDS011;9108;53.204;10.424;2022-12-07T10:13:34;5.63;;;1.80;;
17965;SDS011;9108;53.204;10.424;2022-12-07T10:16:02;7.47;;;2.00;;
17965;SDS011;9108;53.204;10.424;2022-12-07T10:18:30;6.28;;;1.80;;
17965;SDS011;9108;53.204;10.424;2022-12-07T10:21:09;6.70;;;1.83;;
17965;SDS011;9108;53.204;10.424;2022-12-07T10:23:38;5.57;;;1.67;;
17965;SDS011;9108;53.204;10.424;2022-12-07T10:26:19;10.23;;;1.83;;
17965;SDS011;9108;53.204;10.424;2022-12-07T10:28:46;6.20;;;1.80;;
17965;SDS011;9108;53.204;10.424;2022-12-07T10:31:15;8.05;;;1.50;;
17965;SDS011;9108;53.204;10.424;2022-12-07T10:33:48;4.65;;;1.40;;
17965;SDS011;9108;53.204;10.424;2022-12-07T10:36:18;8.45;;;1.45;;
17965;SDS011;9108;53.204;10.424;2022-12-07T10:38:46;5.65;;;1.30;;
17965;SDS011;9108;53.204;10.424;2022-12-07T10:41:13;5.63;;;1.20;;
17965;SDS011;9108;53.204;10.424;2022-12-07T10:43:51;6.43;;;1.10;;
17965;SDS011;9108;53.204;10.424;2022-12-07T10:49:27;7.57;;;1.38;;
17965;SDS011;9108;53.204;10.424;2022-12-07T10:52:02;4.55;;;1.20;;
17965;SDS011;9108;53.204;10.424;2022-12-07T10:54:34;5.43;;;0.80;;
17965;SDS011;9108;53.204;10.424;2022-12-07T10:57:16;4.47;;;0.90;;
17965;SDS011;9108;53.204;10.424;2022-12-07T10:59:55;4.72;;;1.00;;
17965;SDS011;9108;53.204;10.424;2022-12-07T11:02:25;4.45;;;0.70;;
17965;SDS011;9108;53.204;10.424;2022-12-07T11:04:55;4.72;;;0.90;;
17965;SDS011;9108;53.204;10.424;2022-12-07T11:07:27;3.92;;;0.80;;
17965;SDS011;9108;53.204;10.424;2022-12-07T11:10:02;3.08;;;0.70;;
17965;SDS011;9108;53.204;10.424;2022-12-07T11:12:34;4.70;;;0.70;;
17965;SDS011;9108;53.204;10.424;2022-12-07T11:15:09;2.85;;;0.60;;
17965;SDS011;9108;53.204;10.424;2022-12-07T11:17:42;3.63;;;1.00;;
17965;SDS011;9108;53.204;10.424;2022-12-07T11:20:13;5.22;;;0.68;;
17965;SDS011;9108;53.204;10.424;2022-12-07T11:22:46;4.82;;;0.68;;
17965;SDS011;9108;53.204;10.424;2022-12-07T11:25:17;5.63;;;0.88;;
17965;SDS011;9108;53.204;10.424;2022-12-07T11:27:47;4.43;;;0.70;;
17965;SDS011;9108;53.204;10.424;2022-12-07T11:30:17;6.22;;;0.88;;
17965;SDS011;9108;53.204;10.424;2022-12-07T11:32:56;3.92;;;0.80;;
17965;SDS011;9108;53.204;10.424;2022-12-07T11:35:30;3.85;;;0.90;;
17965;SDS011;9108;53.204;10.424;2022-12-07T11:38:01;3.67;;;1.15;;
17965;SDS011;9108;53.204;10.424;2022-12-07T11:40:35;8.07;;;0.90;;
17965;SDS011;9108;53.204;10.424;2022-12-07T11:43:04;4.27;;;1.00;;
17965;SDS011;9108;53.204;10.424;2022-12-07T11:45:32;4.47;;;1.20;;
17965;SDS011;9108;53.204;10.424;2022-12-07T11:48:00;5.07;;;1.02;;
17965;SDS011;9108;53.204;10.424;2022-12-07T11:50:31;5.28;;;1.38;;
17965;SDS011;9108;53.204;10.424;2022-12-07T11:53:02;6.57;;;1.10;;
17965;SDS011;9108;53.204;10.424;2022-12-07T11:55:32;5.60;;;1.10;;
17965;SDS011;9108;53.204;10.424;2022-12-07T11:58:14;8.13;;;1.20;;
17965;SDS011;9108;53.204;10.424;2022-12-07T12:00:46;3.80;;;1.10;;
17965;SDS011;9108;53.204;10.424;2022-12-07T12:03:15;5.53;;;1.20;;
17965;SDS011;9108;53.204;10.424;2022-12-07T12:05:42;7.80;;;1.40;;
17965;SDS011;9108;53.204;10.424;2022-12-07T12:08:13;4.43;;;1.00;;
17965;SDS011;9108;53.204;10.424;2022-12-07T12:10:45;7.25;;;1.20;;
17965;SDS011;9108;53.204;10.424;2022-12-07T12:13:19;6.18;;;1.10;;
17965;SDS011;9108;53.204;10.424;2022-12-07T12:15:53;6.38;;;1.17;;
17965;SDS011;9108;53.204;10.424;2022-12-07T12:18:26;10.93;;;1.20;;
17965;SDS011;9108;53.204;10.424;2022-12-07T12:20:55;8.07;;;1.38;;
17965;SDS011;9108;53.204;10.424;2022-12-07T12:23:27;7.85;;;1.30;;
17965;SDS011;9108;53.204;10.424;2022-12-07T12:26:00;9.05;;;1.33;;
17965;SDS011;9108;53.204;10.424;2022-12-07T12:28:29;8.73;;;1.15;;
17965;SDS011;9108;53.204;10.424;2022-12-07T12:31:04;6.10;;;1.53;;
17965;SDS011;9108;53.204;10.424;2022-12-07T12:33:31;5.68;;;1.40;;
17965;SDS011;9108;53.204;10.424;2022-12-07T12:36:17;7.60;;;1.50;;
17965;SDS011;9108;53.204;10.424;2022-12-07T12:38:50;7.60;;;1.60;;
17965;SDS011;9108;53.204;10.424;2022-12-07T12:44:03;8.02;;;1.30;;
17965;SDS011;9108;53.204;10.424;2022-12-07T12:46:52;10.07;;;2.33;;
17965;SDS011;9108;53.204;10.424;2022-12-07T12:55:01;12.07;;;2.78;;
17965;SDS011;9108;53.204;10.424;2022-12-07T12:57:30;12.60;;;1.80;;
17965;SDS011;9108;53.204;10.424;2022-12-07T12:59:57;7.15;;;1.70;;
17965;SDS011;9108;53.204;10.424;2022-12-07T13:02:26;8.65;;;1.50;;
17965;SDS011;9108;53.204;10.424;2022-12-07T13:04:55;7.93;;;1.30;;
17965;SDS011;9108;53.204;10.424;2022-12-07T13:10:18;11.27;;;1.75;;
17965;SDS011;9108;53.204;10.424;2022-12-07T13:12:54;12.18;;;2.22;;
17965;SDS011;9108;53.204;10.424;2022-12-07T13:15:32;8.93;;;2.20;;
17965;SDS011;9108;53.204;10.424;2022-12-07T13:18:00;14.98;;;3.42;;
17965;SDS011;9108;53.204;10.424;2022-12-07T13:20:41;10.30;;;3.55;;
17965;SDS011;9108;53.204;10.424;2022-12-07T13:23:09;10.30;;;2.38;;
17965;SDS011;9108;53.204;10.424;2022-12-07T13:25:41;7.85;;;1.88;;
17965;SDS011;9108;53.204;10.424;2022-12-07T13:28:14;8.13;;;1.10;;
17965;SDS011;9108;53.204;10.424;2022-12-07T13:30:44;8.10;;;1.20;;
17965;SDS011;9108;53.204;10.424;2022-12-07T13:33:12;7.80;;;1.10;;
17965;SDS011;9108;53.204;10.424;2022-12-07T13:35:39;9.02;;;1.20;;
17965;SDS011;9108;53.204;10.424;2022-12-07T13:38:15;9.55;;;1.67;;
17965;SDS011;9108;53.204;10.424;2022-12-07T13:43:50;5.82;;;1.20;;
17965;SDS011;9108;53.204;10.424;2022-12-07T13:46:17;10.77;;;1.38;;
17965;SDS011;9108;53.204;10.424;2022-12-07T13:48:46;8.37;;;1.30;;
17965;SDS011;9108;53.204;10.424;2022-12-07T13:51:17;8.20;;;1.60;;
17965;SDS011;9108;53.204;10.424;2022-12-07T13:53:48;7.03;;;1.15;;
17965;SDS011;9108;53.204;10.424;2022-12-07T13:56:16;7.57;;;1.20;;
17965;SDS011;9108;53.204;10.424;2022-12-07T13:58:43;10.75;;;1.58;;
17965;SDS011;9108;53.204;10.424;2022-12-07T14:01:12;10.95;;;1.27;;
17965;SDS011;9108;53.204;10.424;2022-12-07T14:03:39;9.93;;;1.40;;
17965;SDS011;9108;53.204;10.424;2022-12-07T14:06:11;7.93;;;1.27;;
17965;SDS011;9108;53.204;10.424;2022-12-07T14:08:40;6.07;;;1.15;;
17965;SDS011;9108;53.204;10.424;2022-12-07T14:11:08;8.10;;;1.73;;
17965;SDS011;9108;53.204;10.424;2022-12-07T14:13:37;11.00;;;3.30;;
17965;SDS011;9108;53.204;10.424;2022-12-07T14:16:16;11.95;;;2.97;;
17965;SDS011;9108;53.204;10.424;2022-12-07T14:18:45;8.30;;;2.00;;
17965;SDS011;9108;53.204;10.424;2022-12-07T14:21:15;8.93;;;2.33;;
17965;SDS011;9108;53.204;10.424;2022-12-07T14:23:42;14.80;;;5.03;;
17965;SDS011;9108;53.204;10.424;2022-12-07T14:26:11;13.65;;;5.35;;
17965;SDS011;9108;53.204;10.424;2022-12-07T14:28:39;29.80;;;13.15;;
17965;SDS011;9108;53.204;10.424;2022-12-07T14:31:08;31.95;;;13.35;;
17965;SDS011;9108;53.204;10.424;2022-12-07T14:33:39;24.10;;;8.85;;
17965;SDS011;9108;53.204;10.424;2022-12-07T14:36:08;13.50;;;4.28;;
17965;SDS011;9108;53.204;10.424;2022-12-07T14:38:35;7.85;;;2.28;;
17965;SDS011;9108;53.204;10.424;2022-12-07T14:41:02;6.28;;;1.70;;
17965;SDS011;9108;53.204;10.424;2022-12-07T14:43:48;9.20;;;2.42;;
17965;SDS011;9108;53.204;10.424;2022-12-07T14:46:15;17.38;;;4.32;;
17965;SDS011;9108;53.204;10.424;2022-12-07T14:48:44;10.57;;;3.88;;
17965;SDS011;9108;53.204;10.424;2022-12-07T14:51:11;10.52;;;3.78;;
17965;SDS011;9108;53.204;10.424;2022-12-07T14:53:39;12.88;;;4.68;;
17965;SDS011;9108;53.204;10.424;2022-12-07T14:56:07;9.07;;;2.55;;
17965;SDS011;9108;53.204;10.424;2022-12-07T14:58:34;12.50;;;3.65;;
17965;SDS011;9108;53.204;10.424;2022-12-07T15:01:03;11.52;;;5.18;;
17965;SDS011;9108;53.204;10.424;2022-12-07T15:03:30;16.55;;;8.10;;
17965;SDS011;9108;53.204;10.424;2022-12-07T15:06:00;21.10;;;8.77;;
17965;SDS011;9108;53.204;10.424;2022-12-07T15:08:28;39.15;;;19.92;;